Time;durP1;ratioP1;P1;durP2;ratioP2;P2;SDS_P1;SDS_P2;PMS_P1;PMS_P2;Temp;Humidity;BMP_temperature;BMP_pressure;BME280_temperature;BME280_humidity;BME280_pressure;Samples;Min_cycle;Max_cycle;Signal;HPM_P1;HPM_P2
2022/05/11 00:01:16;;;;;;;44.67;25.08;;;;;;;;;;5015447;28;20038;-63
2022/05/11 00:03:42;;;;;;;46.60;24.52;;;;;;;;;;5012807;28;20207;-64
2022/05/11 00:06:09;;;;;;;52.00;26.77;;;;;;;;;;5001996;28;20045;-63
2022/05/11 00:08:35;;;;;;;50.38;27.30;;;;;;;;;;4998775;28;20166;-63
2022/05/11 00:11:02;;;;;;;51.25;26.67;;;;;;;;;;5022083;28;20072;-63
2022/05/11 00:13:29;;;;;;;51.83;27.02;;;;;;;;;;5006874;28;20107;-63
2022/05/11 00:15:55;;;;;;;54.83;26.35;;;;;;;;;;5010007;28;20050;-64
2022/05/11 00:18:21;;;;;;;49.17;26.20;;;;;;;;;;5011491;28;20465;-63
2022/05/11 00:20:48;;;;;;;48.97;27.25;;;;;;;;;;5021030;28;20902;-63
2022/05/11 00:23:14;;;;;;;49.15;25.60;;;;;;;;;;5015866;28;20882;-64
2022/05/11 00:25:40;;;;;;;45.58;24.77;;;;;;;;;;5021918;28;20042;-63
2022/05/11 00:28:06;;;;;;;46.15;25.13;;;;;;;;;;5000029;28;20154;-63
2022/05/11 00:30:33;;;;;;;44.00;24.90;;;;;;;;;;5015894;28;20058;-63
2022/05/11 00:33:00;;;;;;;44.47;25.33;;;;;;;;;;5015699;28;20053;-63
2022/05/11 00:35:27;;;;;;;42.88;22.50;;;;;;;;;;5018463;28;20412;-63
2022/05/11 00:37:53;;;;;;;42.83;23.58;;;;;;;;;;5012374;28;20053;-63
2022/05/11 00:40:20;;;;;;;43.10;23.08;;;;;;;;;;5012892;28;20042;-63
2022/05/11 00:42:46;;;;;;;48.58;23.70;;;;;;;;;;5009743;28;20087;-64
2022/05/11 00:45:13;;;;;;;49.20;24.63;;;;;;;;;;5026124;28;20037;-64
2022/05/11 00:47:41;;;;;;;41.35;22.75;;;;;;;;;;5013779;28;20446;-63
2022/05/11 00:50:10;;;;;;;39.72;23.67;;;;;;;;;;5014139;28;20034;-63
2022/05/11 00:52:41;;;;;;;47.03;22.10;;;;;;;;;;5012315;28;20048;-63
2022/05/11 00:55:11;;;;;;;44.78;23.50;;;;;;;;;;5004871;28;20073;-63
2022/05/11 00:57:41;;;;;;;44.70;23.33;;;;;;;;;;5014759;28;20037;-64
2022/05/11 01:00:10;;;;;;;41.95;22.65;;;;;;;;;;5012472;28;20068;-63
2022/05/11 01:02:37;;;;;;;45.60;24.30;;;;;;;;;;5009628;28;20048;-63
2022/05/11 01:05:06;;;;;;;40.50;22.83;;;;;;;;;;4999081;28;20049;-63
2022/05/11 01:07:32;;;;;;;41.78;22.83;;;;;;;;;;5013944;28;20366;-64
2022/05/11 01:09:58;;;;;;;45.80;22.50;;;;;;;;;;5012147;28;20388;-63
2022/05/11 01:12:29;;;;;;;43.67;21.45;;;;;;;;;;5005697;28;20851;-63
2022/05/11 01:15:00;;;;;;;45.42;23.20;;;;;;;;;;5011382;28;20369;-63
2022/05/11 01:17:26;;;;;;;45.67;22.42;;;;;;;;;;4998533;28;20564;-63
2022/05/11 01:19:53;;;;;;;40.38;21.33;;;;;;;;;;5011007;28;20075;-63
2022/05/11 01:22:24;;;;;;;42.17;21.20;;;;;;;;;;5014148;28;20073;-63
2022/05/11 01:24:50;;;;;;;40.85;20.90;;;;;;;;;;5017708;28;20412;-63
2022/05/11 01:27:27;;;;;;;41.13;20.73;;;;;;;;;;5011636;28;20054;-63
2022/05/11 01:29:55;;;;;;;34.22;19.55;;;;;;;;;;5016009;28;20434;-64
2022/05/11 01:32:22;;;;;;;38.22;18.65;;;;;;;;;;5015144;28;20092;-63
2022/05/11 01:35:06;;;;;;;36.25;19.90;;;;;;;;;;5017061;28;20038;-63
2022/05/11 01:37:37;;;;;;;37.47;19.75;;;;;;;;;;5015511;28;20037;-64
2022/05/11 01:40:04;;;;;;;41.67;19.05;;;;;;;;;;5020265;28;20064;-64
2022/05/11 01:42:30;;;;;;;43.22;18.50;;;;;;;;;;4999139;28;20042;-63
2022/05/11 01:44:56;;;;;;;31.33;18.27;;;;;;;;;;5020604;28;20040;-63
2022/05/11 01:47:22;;;;;;;35.22;19.63;;;;;;;;;;5013815;28;20073;-63
2022/05/11 01:49:48;;;;;;;30.05;18.42;;;;;;;;;;5017615;28;20046;-63
2022/05/11 01:52:14;;;;;;;34.50;18.73;;;;;;;;;;5002491;28;20120;-63
2022/05/11 01:54:40;;;;;;;44.45;19.10;;;;;;;;;;5013963;28;20099;-63
2022/05/11 01:57:06;;;;;;;32.70;18.92;;;;;;;;;;5016128;28;20454;-63
2022/05/11 01:59:33;;;;;;;44.88;19.75;;;;;;;;;;4999505;28;20052;-63
2022/05/11 02:01:59;;;;;;;45.30;20.17;;;;;;;;;;5001516;28;20054;-63
2022/05/11 02:09:55;;;;;;;39.28;18.92;;;;;;;;;;5018704;28;20046;-63
2022/05/11 02:12:21;;;;;;;38.50;19.45;;;;;;;;;;5014342;28;20042;-63
2022/05/11 02:14:47;;;;;;;37.85;18.55;;;;;;;;;;5016368;28;20195;-63
2022/05/11 02:17:13;;;;;;;34.67;19.75;;;;;;;;;;4995341;28;20076;-63
2022/05/11 02:19:39;;;;;;;37.25;19.50;;;;;;;;;;5010653;28;20049;-63
2022/05/11 02:22:05;;;;;;;38.15;18.90;;;;;;;;;;4984141;28;20041;-63
2022/05/11 02:24:32;;;;;;;36.92;19.23;;;;;;;;;;5011046;28;20135;-64
2022/05/11 02:27:01;;;;;;;31.52;18.42;;;;;;;;;;5003837;28;20045;-63
2022/05/11 02:29:27;;;;;;;38.35;18.60;;;;;;;;;;5011892;28;20081;-63
2022/05/11 02:31:53;;;;;;;34.35;17.88;;;;;;;;;;5002114;28;20065;-64
2022/05/11 02:37:04;;;;;;;27.05;16.67;;;;;;;;;;5002467;28;20141;-63
2022/05/11 02:39:30;;;;;;;34.90;17.20;;;;;;;;;;5014397;28;20413;-64
2022/05/11 02:41:56;;;;;;;31.55;16.23;;;;;;;;;;5014619;28;20504;-63
2022/05/11 02:44:23;;;;;;;32.97;17.67;;;;;;;;;;5003525;28;20049;-63
2022/05/11 02:46:49;;;;;;;31.15;16.52;;;;;;;;;;5018101;28;20038;-64
2022/05/11 02:49:15;;;;;;;34.33;17.17;;;;;;;;;;5017239;28;20103;-64
2022/05/11 02:51:41;;;;;;;34.65;17.10;;;;;;;;;;5019043;28;20156;-63
2022/05/11 02:54:07;;;;;;;29.75;14.95;;;;;;;;;;5017360;28;20042;-63
2022/05/11 02:56:34;;;;;;;29.48;15.02;;;;;;;;;;5016026;28;20042;-63
2022/05/11 02:59:00;;;;;;;31.73;15.60;;;;;;;;;;5013675;28;20037;-63
2022/05/11 03:01:26;;;;;;;31.35;15.15;;;;;;;;;;5018076;28;20196;-63
2022/05/11 03:03:52;;;;;;;30.88;14.25;;;;;;;;;;5016060;28;20053;-63
2022/05/11 03:06:18;;;;;;;30.40;14.45;;;;;;;;;;5010164;28;20049;-63
2022/05/11 03:08:44;;;;;;;26.33;13.73;;;;;;;;;;5017722;28;20056;-63
2022/05/11 03:11:11;;;;;;;29.92;13.40;;;;;;;;;;5011536;28;20049;-63
2022/05/11 03:13:37;;;;;;;28.10;13.80;;;;;;;;;;4997908;28;20524;-63
2022/05/11 03:16:03;;;;;;;23.92;13.77;;;;;;;;;;5005343;28;20555;-63
2022/05/11 03:18:29;;;;;;;27.10;13.95;;;;;;;;;;5012132;28;20069;-63
2022/05/11 03:20:56;;;;;;;29.80;12.80;;;;;;;;;;5011698;28;20048;-63
2022/05/11 03:23:22;;;;;;;28.50;13.40;;;;;;;;;;5014843;28;20481;-64
2022/05/11 03:25:49;;;;;;;27.27;13.48;;;;;;;;;;5011952;28;20038;-64
2022/05/11 03:28:15;;;;;;;32.75;14.90;;;;;;;;;;5017930;28;20042;-63
2022/05/11 03:30:41;;;;;;;25.95;13.93;;;;;;;;;;5014724;28;20045;-63
2022/05/11 03:35:51;;;;;;;24.90;14.40;;;;;;;;;;5019564;28;20049;-64
2022/05/11 03:38:18;;;;;;;30.65;14.43;;;;;;;;;;5015898;28;20045;-63
2022/05/11 03:40:44;;;;;;;30.25;14.85;;;;;;;;;;5017342;28;20069;-63
2022/05/11 03:43:10;;;;;;;27.88;14.50;;;;;;;;;;5019034;28;20121;-63
2022/05/11 03:45:37;;;;;;;31.98;16.02;;;;;;;;;;5002435;28;20103;-63
2022/05/11 03:48:03;;;;;;;29.10;15.15;;;;;;;;;;5014945;28;20064;-63
2022/05/11 03:50:30;;;;;;;27.52;15.07;;;;;;;;;;5000651;28;20041;-63
2022/05/11 03:52:56;;;;;;;28.10;14.90;;;;;;;;;;5022410;28;20119;-63
2022/05/11 03:55:23;;;;;;;24.00;13.93;;;;;;;;;;5017194;28;20041;-63
2022/05/11 03:57:50;;;;;;;27.48;14.10;;;;;;;;;;5008194;28;20059;-63
2022/05/11 04:00:20;;;;;;;28.42;15.00;;;;;;;;;;5014973;28;20128;-63
2022/05/11 04:02:46;;;;;;;34.70;14.27;;;;;;;;;;5002370;28;20158;-63
2022/05/11 04:05:13;;;;;;;26.05;14.13;;;;;;;;;;5006284;28;20042;-63
2022/05/11 04:07:39;;;;;;;33.33;13.70;;;;;;;;;;5015638;28;20132;-63
2022/05/11 04:10:06;;;;;;;30.20;13.60;;;;;;;;;;5014900;28;20136;-64
2022/05/11 04:12:32;;;;;;;29.23;13.50;;;;;;;;;;5018739;28;20038;-63
2022/05/11 04:14:58;;;;;;;28.77;13.70;;;;;;;;;;5016415;28;20038;-63
2022/05/11 04:17:24;;;;;;;30.90;12.38;;;;;;;;;;5006448;28;20116;-63
2022/05/11 04:19:50;;;;;;;34.42;12.52;;;;;;;;;;5019666;28;20046;-63
2022/05/11 04:22:17;;;;;;;27.35;11.77;;;;;;;;;;5017042;28;20045;-63
2022/05/11 04:24:43;;;;;;;22.95;10.73;;;;;;;;;;5017809;28;20045;-64
2022/05/11 04:27:09;;;;;;;21.73;10.40;;;;;;;;;;5014624;28;20041;-63
2022/05/11 04:29:37;;;;;;;24.17;10.35;;;;;;;;;;5008528;28;20080;-63
2022/05/11 04:32:03;;;;;;;21.52;10.65;;;;;;;;;;5009714;28;20049;-64
2022/05/11 04:34:29;;;;;;;23.95;10.27;;;;;;;;;;5015331;28;20308;-63
2022/05/11 04:36:56;;;;;;;26.67;10.23;;;;;;;;;;5015213;28;20631;-64
2022/05/11 04:39:22;;;;;;;28.20;9.68;;;;;;;;;;5016585;28;20041;-63
2022/05/11 04:41:49;;;;;;;23.65;10.23;;;;;;;;;;5019367;28;20038;-63
2022/05/11 04:44:15;;;;;;;22.48;8.70;;;;;;;;;;5011903;28;20045;-63
2022/05/11 04:46:41;;;;;;;23.08;9.10;;;;;;;;;;5013323;28;20045;-64
2022/05/11 04:49:17;;;;;;;32.42;8.95;;;;;;;;;;5017347;28;20069;-63
2022/05/11 04:51:43;;;;;;;23.05;8.50;;;;;;;;;;5016663;28;20059;-63
2022/05/11 04:54:09;;;;;;;27.33;9.70;;;;;;;;;;5020559;28;20037;-63
2022/05/11 04:56:38;;;;;;;23.83;8.75;;;;;;;;;;5014021;28;20029;-64
2022/05/11 04:59:05;;;;;;;21.15;8.45;;;;;;;;;;5015895;28;20037;-63
2022/05/11 05:01:31;;;;;;;19.90;8.30;;;;;;;;;;5018480;28;20073;-63
2022/05/11 05:03:57;;;;;;;29.52;8.68;;;;;;;;;;5001044;28;20459;-63
2022/05/11 05:06:23;;;;;;;25.55;8.80;;;;;;;;;;5013154;28;20354;-63
2022/05/11 05:08:52;;;;;;;21.13;8.35;;;;;;;;;;5014697;28;20402;-63
2022/05/11 05:11:18;;;;;;;22.52;8.77;;;;;;;;;;5014583;28;20613;-63
2022/05/11 05:13:44;;;;;;;26.45;9.18;;;;;;;;;;5006837;28;20397;-62
2022/05/11 05:16:10;;;;;;;25.88;9.30;;;;;;;;;;5005989;28;21747;-63
2022/05/11 05:18:36;;;;;;;30.38;10.23;;;;;;;;;;5010886;28;20044;-63
2022/05/11 05:21:03;;;;;;;23.40;9.05;;;;;;;;;;5008951;28;20435;-63
2022/05/11 05:23:29;;;;;;;28.00;9.10;;;;;;;;;;5013394;28;20045;-66
2022/05/11 05:25:55;;;;;;;23.10;8.07;;;;;;;;;;5007279;28;20112;-63
2022/05/11 05:31:10;;;;;;;22.33;8.68;;;;;;;;;;5017029;28;20046;-63
2022/05/11 05:33:39;;;;;;;21.27;8.48;;;;;;;;;;5015188;28;20053;-63
2022/05/11 05:36:05;;;;;;;24.88;8.63;;;;;;;;;;5011722;28;20034;-63
2022/05/11 05:38:32;;;;;;;22.65;8.32;;;;;;;;;;5018849;28;20037;-63
2022/05/11 05:40:58;;;;;;;22.88;8.32;;;;;;;;;;5015259;28;20141;-63
2022/05/11 05:43:24;;;;;;;29.95;8.93;;;;;;;;;;5011265;28;20061;-63
2022/05/11 05:45:51;;;;;;;24.08;7.78;;;;;;;;;;5011868;28;20037;-63
2022/05/11 05:48:19;;;;;;;23.58;8.32;;;;;;;;;;5016482;28;20092;-63
2022/05/11 05:50:45;;;;;;;26.75;7.85;;;;;;;;;;5019467;28;20040;-63
2022/05/11 05:53:12;;;;;;;23.58;7.35;;;;;;;;;;5013401;28;20043;-63
2022/05/11 05:55:38;;;;;;;29.67;8.95;;;;;;;;;;5016165;28;20479;-64
2022/05/11 05:58:05;;;;;;;20.02;7.38;;;;;;;;;;5012861;28;20038;-64
2022/05/11 06:00:32;;;;;;;31.95;7.53;;;;;;;;;;5013834;28;20528;-64
2022/05/11 06:02:58;;;;;;;27.52;7.85;;;;;;;;;;5010168;28;20050;-64
2022/05/11 06:05:28;;;;;;;21.15;7.82;;;;;;;;;;5018038;28;20482;-64
2022/05/11 06:07:54;;;;;;;21.42;7.43;;;;;;;;;;5018594;28;20860;-64
2022/05/11 06:10:20;;;;;;;17.08;7.22;;;;;;;;;;4998228;28;20049;-64
2022/05/11 06:12:46;;;;;;;25.17;8.32;;;;;;;;;;5021180;28;20120;-64
2022/05/11 06:15:14;;;;;;;18.75;7.00;;;;;;;;;;5017108;28;20112;-64
2022/05/11 06:17:40;;;;;;;23.65;7.22;;;;;;;;;;5008729;28;20405;-64
2022/05/11 06:20:08;;;;;;;22.98;7.20;;;;;;;;;;5021493;28;20045;-64
2022/05/11 06:22:34;;;;;;;23.83;7.38;;;;;;;;;;5009036;28;20077;-63
2022/05/11 06:25:01;;;;;;;18.45;5.68;;;;;;;;;;5011708;28;20412;-64
2022/05/11 06:27:29;;;;;;;24.15;7.20;;;;;;;;;;5002106;28;20049;-63
2022/05/11 06:29:57;;;;;;;26.45;6.93;;;;;;;;;;5010014;28;20049;-64
2022/05/11 06:32:24;;;;;;;21.92;6.38;;;;;;;;;;5011097;28;20436;-63
2022/05/11 06:34:51;;;;;;;24.60;6.45;;;;;;;;;;5008838;28;20111;-64
2022/05/11 06:37:18;;;;;;;17.20;5.25;;;;;;;;;;5008473;28;20045;-63
2022/05/11 06:39:44;;;;;;;21.45;5.60;;;;;;;;;;5015803;28;20077;-63
2022/05/11 06:42:12;;;;;;;20.40;5.30;;;;;;;;;;5016220;28;20132;-63
2022/05/11 06:44:38;;;;;;;19.58;5.72;;;;;;;;;;5006879;28;20406;-62
2022/05/11 06:47:05;;;;;;;21.50;5.20;;;;;;;;;;5010797;28;20045;-62
2022/05/11 06:49:32;;;;;;;21.02;4.90;;;;;;;;;;5014625;28;20367;-62
2022/05/11 06:51:59;;;;;;;17.98;5.20;;;;;;;;;;5013595;28;20042;-63
2022/05/11 06:59:55;;;;;;;19.30;5.70;;;;;;;;;;5014013;28;20049;-63
2022/05/11 07:02:22;;;;;;;22.63;5.10;;;;;;;;;;5017767;28;20498;-63
2022/05/11 07:04:48;;;;;;;24.13;5.53;;;;;;;;;;5012383;28;20494;-63
2022/05/11 07:07:15;;;;;;;23.52;5.47;;;;;;;;;;5017700;28;20041;-63
2022/05/11 07:09:41;;;;;;;16.10;4.40;;;;;;;;;;5015439;28;20125;-63
2022/05/11 07:12:17;;;;;;;26.80;5.55;;;;;;;;;;5015467;28;20116;-62
2022/05/11 07:14:44;;;;;;;18.63;4.63;;;;;;;;;;5018914;28;20124;-62
2022/05/11 07:17:10;;;;;;;18.23;5.20;;;;;;;;;;5018769;28;20056;-63
2022/05/11 07:19:40;;;;;;;21.20;7.03;;;;;;;;;;5018227;28;20092;-63
2022/05/11 07:22:06;;;;;;;31.85;5.50;;;;;;;;;;5014778;28;20045;-63
2022/05/11 07:24:33;;;;;;;20.35;4.82;;;;;;;;;;5021262;28;20042;-63
2022/05/11 07:27:00;;;;;;;24.58;5.05;;;;;;;;;;5021735;28;20456;-63
2022/05/11 07:29:26;;;;;;;18.73;5.60;;;;;;;;;;5014243;28;20045;-63
2022/05/11 07:31:52;;;;;;;24.17;5.05;;;;;;;;;;5014560;28;20037;-63
2022/05/11 07:34:18;;;;;;;20.02;5.53;;;;;;;;;;5012157;28;20112;-64
2022/05/11 07:36:44;;;;;;;21.45;5.97;;;;;;;;;;5015104;28;20547;-63
2022/05/11 07:39:10;;;;;;;23.80;6.55;;;;;;;;;;5023020;28;20059;-64
2022/05/11 07:41:37;;;;;;;26.98;5.90;;;;;;;;;;4998789;28;20038;-63
2022/05/11 07:44:03;;;;;;;21.98;5.28;;;;;;;;;;5010445;28;20506;-64
2022/05/11 07:46:34;;;;;;;23.98;5.20;;;;;;;;;;5017205;28;20049;-63
2022/05/11 07:49:01;;;;;;;24.50;5.45;;;;;;;;;;5016366;28;20469;-64
2022/05/11 07:51:27;;;;;;;21.60;4.57;;;;;;;;;;5014245;28;20161;-63
2022/05/11 07:53:53;;;;;;;20.52;5.10;;;;;;;;;;5013783;28;20049;-63
2022/05/11 08:01:50;;;;;;;29.33;6.10;;;;;;;;;;5015982;28;20046;-63
2022/05/11 08:04:16;;;;;;;23.75;5.18;;;;;;;;;;5019433;28;20046;-63
2022/05/11 08:06:42;;;;;;;23.23;5.47;;;;;;;;;;5017823;28;20199;-63
2022/05/11 08:09:09;;;;;;;21.98;5.97;;;;;;;;;;5009975;28;20030;-63
2022/05/11 08:11:35;;;;;;;23.75;5.00;;;;;;;;;;5011693;28;20049;-64
2022/05/11 08:14:02;;;;;;;22.00;4.88;;;;;;;;;;5006651;28;20041;-64
2022/05/11 08:16:28;;;;;;;21.85;4.72;;;;;;;;;;5010742;28;20075;-63
2022/05/11 08:18:55;;;;;;;23.67;5.43;;;;;;;;;;5011599;28;20113;-63
2022/05/11 08:21:21;;;;;;;25.05;5.00;;;;;;;;;;5012233;28;20508;-63
2022/05/11 08:23:49;;;;;;;23.95;4.95;;;;;;;;;;4996627;28;20494;-63
2022/05/11 08:26:16;;;;;;;22.35;4.80;;;;;;;;;;5018078;28;20040;-63
2022/05/11 08:28:42;;;;;;;26.92;5.40;;;;;;;;;;5015168;28;20409;-63
2022/05/11 08:33:53;;;;;;;25.92;5.53;;;;;;;;;;5012209;28;20058;-63
2022/05/11 08:36:22;;;;;;;16.25;4.15;;;;;;;;;;5007831;28;20049;-63
2022/05/11 08:38:49;;;;;;;26.25;5.20;;;;;;;;;;5006481;28;20126;-63
2022/05/11 08:41:19;;;;;;;24.63;5.07;;;;;;;;;;5017601;28;20053;-63
2022/05/11 08:43:45;;;;;;;19.63;4.38;;;;;;;;;;5018149;28;20053;-63
2022/05/11 08:46:16;;;;;;;23.38;5.65;;;;;;;;;;5018908;28;20126;-63
2022/05/11 08:48:55;;;;;;;17.75;4.70;;;;;;;;;;5018557;28;20067;-64
2022/05/11 08:51:27;;;;;;;18.40;4.50;;;;;;;;;;5016951;28;20076;-64
2022/05/11 08:54:05;;;;;;;17.17;4.47;;;;;;;;;;5013256;28;20133;-63
2022/05/11 08:56:31;;;;;;;17.65;4.68;;;;;;;;;;5013353;28;20292;-64
2022/05/11 08:58:58;;;;;;;23.23;5.22;;;;;;;;;;5017543;28;20117;-63
2022/05/11 09:01:30;;;;;;;19.77;4.60;;;;;;;;;;5016228;28;20120;-63
2022/05/11 09:03:58;;;;;;;20.80;5.13;;;;;;;;;;5012021;28;20481;-63
2022/05/11 09:06:27;;;;;;;22.25;4.82;;;;;;;;;;5017870;28;20120;-63
2022/05/11 09:08:54;;;;;;;15.13;4.38;;;;;;;;;;5006460;28;20369;-63
2022/05/11 09:11:26;;;;;;;19.25;3.70;;;;;;;;;;5002461;28;20044;-63
2022/05/11 09:13:52;;;;;;;23.23;5.60;;;;;;;;;;5004640;28;20490;-63
2022/05/11 09:16:21;;;;;;;15.13;4.63;;;;;;;;;;5008288;28;20132;-64
2022/05/11 09:18:47;;;;;;;18.38;4.95;;;;;;;;;;5003272;28;20048;-63
2022/05/11 09:21:24;;;;;;;15.35;4.20;;;;;;;;;;5012527;28;20077;-63
2022/05/11 09:24:02;;;;;;;18.60;4.05;;;;;;;;;;5002465;28;20046;-63
2022/05/11 09:26:36;;;;;;;15.82;3.88;;;;;;;;;;5014483;28;20111;-64
2022/05/11 09:29:22;;;;;;;14.15;2.75;;;;;;;;;;5010458;28;20081;-63
2022/05/11 09:31:50;;;;;;;20.38;4.55;;;;;;;;;;5010873;28;20522;-64
2022/05/11 09:34:28;;;;;;;12.52;3.50;;;;;;;;;;5008761;28;20615;-64
2022/05/11 09:36:56;;;;;;;16.77;4.68;;;;;;;;;;5010324;28;20085;-64
2022/05/11 09:39:23;;;;;;;15.55;3.83;;;;;;;;;;5009823;28;20053;-64
2022/05/11 09:41:51;;;;;;;14.90;3.20;;;;;;;;;;5013089;28;20405;-64
2022/05/11 09:44:17;;;;;;;14.75;3.10;;;;;;;;;;5013761;28;20390;-64
2022/05/11 09:46:44;;;;;;;14.38;3.58;;;;;;;;;;5018508;28;20049;-64
2022/05/11 09:49:14;;;;;;;19.13;4.05;;;;;;;;;;5002705;28;20482;-64
2022/05/11 09:51:42;;;;;;;11.70;3.03;;;;;;;;;;5017926;28;20034;-64
2022/05/11 09:54:23;;;;;;;16.83;3.90;;;;;;;;;;5015882;28;22097;-64
2022/05/11 09:56:49;;;;;;;14.32;3.03;;;;;;;;;;5017085;28;20644;-64
2022/05/11 09:59:17;;;;;;;13.63;2.90;;;;;;;;;;5015112;28;20041;-64
2022/05/11 10:01:44;;;;;;;11.77;3.10;;;;;;;;;;5015364;28;20477;-64
2022/05/11 10:04:10;;;;;;;14.60;3.22;;;;;;;;;;5013421;28;20037;-64
2022/05/11 10:06:47;;;;;;;8.77;2.30;;;;;;;;;;5010183;28;20489;-64
2022/05/11 10:09:15;;;;;;;10.10;1.92;;;;;;;;;;5008009;28;20049;-64
2022/05/11 10:11:44;;;;;;;11.07;2.35;;;;;;;;;;5015001;28;20139;-64
2022/05/11 10:22:43;;;;;;;14.43;2.67;;;;;;;;;;5011267;28;20046;-64
2022/05/11 10:25:24;;;;;;;14.57;2.60;;;;;;;;;;5016600;28;20045;-64
2022/05/11 10:27:54;;;;;;;12.43;2.47;;;;;;;;;;5009705;28;20390;-64
2022/05/11 10:30:22;;;;;;;12.40;2.75;;;;;;;;;;5008359;28;20061;-64
2022/05/11 10:33:09;;;;;;;16.33;3.00;;;;;;;;;;5014481;28;20045;-65
2022/05/11 10:35:44;;;;;;;10.95;2.67;;;;;;;;;;5014777;28;20060;-64
2022/05/11 10:38:19;;;;;;;17.55;3.08;;;;;;;;;;4996620;28;20462;-64
2022/05/11 10:41:01;;;;;;;13.65;2.80;;;;;;;;;;5010773;28;20085;-64
2022/05/11 10:43:38;;;;;;;15.75;3.65;;;;;;;;;;5003463;28;20041;-64
2022/05/11 10:46:11;;;;;;;14.45;3.08;;;;;;;;;;5016925;28;20091;-64
2022/05/11 10:48:38;;;;;;;12.97;2.87;;;;;;;;;;5011215;28;20049;-64
2022/05/11 10:51:09;;;;;;;17.48;3.35;;;;;;;;;;5010155;28;20312;-64
2022/05/11 10:53:39;;;;;;;11.20;3.13;;;;;;;;;;5011289;28;20041;-65
2022/05/11 10:56:15;;;;;;;9.82;2.70;;;;;;;;;;5012027;28;20054;-64
2022/05/11 10:59:01;;;;;;;13.23;3.13;;;;;;;;;;5010580;28;20474;-64
2022/05/11 11:01:34;;;;;;;16.48;3.60;;;;;;;;;;5007703;28;20056;-64
2022/05/11 11:04:33;;;;;;;16.65;3.17;;;;;;;;;;5004806;28;20060;-64
2022/05/11 11:07:11;;;;;;;14.35;3.55;;;;;;;;;;5002080;28;20046;-64
2022/05/11 11:09:52;;;;;;;12.20;3.17;;;;;;;;;;5010646;28;20120;-64
2022/05/11 11:12:27;;;;;;;14.55;3.20;;;;;;;;;;5013459;28;20501;-64
2022/05/11 11:14:56;;;;;;;16.55;3.22;;;;;;;;;;5018286;28;20468;-64
2022/05/11 11:17:23;;;;;;;13.82;3.72;;;;;;;;;;5011723;28;20461;-64
2022/05/11 11:19:52;;;;;;;19.67;3.58;;;;;;;;;;5011472;28;20088;-65
2022/05/11 11:22:19;;;;;;;14.95;3.90;;;;;;;;;;5021634;28;20083;-64
2022/05/11 11:25:05;;;;;;;12.52;3.75;;;;;;;;;;5010398;28;20038;-64
2022/05/11 11:27:49;;;;;;;18.48;4.10;;;;;;;;;;5015551;28;20038;-64
2022/05/11 11:30:21;;;;;;;19.23;3.72;;;;;;;;;;5014125;28;20046;-64
2022/05/11 11:33:08;;;;;;;19.00;3.97;;;;;;;;;;5014132;28;20049;-64
2022/05/11 11:35:35;;;;;;;14.85;2.70;;;;;;;;;;5014263;28;20358;-64
2022/05/11 11:38:02;;;;;;;13.45;3.38;;;;;;;;;;5012385;28;20046;-64
2022/05/11 11:40:30;;;;;;;24.05;4.45;;;;;;;;;;5014803;28;20133;-64
2022/05/11 11:42:56;;;;;;;15.02;3.75;;;;;;;;;;4996266;28;20085;-64
2022/05/11 11:45:26;;;;;;;14.98;3.63;;;;;;;;;;5007340;28;20048;-64
2022/05/11 11:48:01;;;;;;;17.50;4.75;;;;;;;;;;5017314;28;20188;-64
2022/05/11 11:50:45;;;;;;;17.30;4.10;;;;;;;;;;5003165;28;20042;-64
2022/05/11 11:53:13;;;;;;;23.70;4.57;;;;;;;;;;5011516;28;20050;-64
2022/05/11 11:55:40;;;;;;;15.70;3.60;;;;;;;;;;5012220;28;20128;-64
2022/05/11 11:58:14;;;;;;;13.48;3.30;;;;;;;;;;5021325;28;20042;-64
2022/05/11 12:01:01;;;;;;;19.98;4.07;;;;;;;;;;5005311;28;20046;-64
2022/05/11 12:03:29;;;;;;;19.67;3.70;;;;;;;;;;5013610;28;20164;-64
2022/05/11 12:17:02;;;;;;;19.75;4.43;;;;;;;;;;5016395;28;20084;-64
2022/05/11 12:19:31;;;;;;;24.60;6.15;;;;;;;;;;5013020;28;20084;-65
2022/05/11 12:22:12;;;;;;;22.27;4.78;;;;;;;;;;5015904;28;20151;-64
2022/05/11 12:24:40;;;;;;;16.38;4.38;;;;;;;;;;5013657;28;20049;-64
2022/05/11 12:27:12;;;;;;;18.08;4.60;;;;;;;;;;4999173;28;20106;-64
2022/05/11 12:29:56;;;;;;;20.58;5.55;;;;;;;;;;5016117;28;20140;-64
2022/05/11 12:32:24;;;;;;;18.95;5.97;;;;;;;;;;5017660;28;20057;-65
2022/05/11 12:34:51;;;;;;;18.65;5.53;;;;;;;;;;5012000;28;20061;-64
2022/05/11 12:37:23;;;;;;;18.60;4.78;;;;;;;;;;5014042;28;20064;-64
2022/05/11 12:39:54;;;;;;;18.52;4.15;;;;;;;;;;5014070;28;20052;-64
2022/05/11 12:42:29;;;;;;;16.30;4.18;;;;;;;;;;4997970;28;20498;-65
2022/05/11 12:44:56;;;;;;;16.13;4.32;;;;;;;;;;5016644;28;20038;-64
2022/05/11 12:47:22;;;;;;;16.23;3.83;;;;;;;;;;5012348;28;20049;-64
2022/05/11 12:49:49;;;;;;;23.25;4.00;;;;;;;;;;5008860;28;20501;-64
2022/05/11 12:52:17;;;;;;;19.70;4.78;;;;;;;;;;5017071;28;20116;-64
2022/05/11 12:54:54;;;;;;;16.65;4.05;;;;;;;;;;5017201;28;20125;-64
2022/05/11 12:57:21;;;;;;;21.65;4.47;;;;;;;;;;5015749;28;20042;-64
2022/05/11 12:59:55;;;;;;;16.23;3.55;;;;;;;;;;5019895;28;20100;-64
2022/05/11 13:02:26;;;;;;;10.70;3.13;;;;;;;;;;5011964;28;20454;-64
2022/05/11 13:04:54;;;;;;;19.10;4.50;;;;;;;;;;5014025;28;20037;-64
2022/05/11 13:07:23;;;;;;;20.23;4.30;;;;;;;;;;5015554;28;20041;-64
2022/05/11 13:09:51;;;;;;;17.52;4.65;;;;;;;;;;5015111;28;20510;-64
2022/05/11 13:12:17;;;;;;;18.60;4.57;;;;;;;;;;5009747;28;20477;-64
2022/05/11 13:14:45;;;;;;;19.77;4.38;;;;;;;;;;5017040;28;20087;-64
2022/05/11 13:17:18;;;;;;;15.60;3.67;;;;;;;;;;5018937;28;20034;-64
2022/05/11 13:19:51;;;;;;;20.90;4.07;;;;;;;;;;5013244;28;20086;-65
2022/05/11 13:22:17;;;;;;;;;;;;;;;;;;5017073;28;20045;-64
2022/05/11 13:24:45;;;;;;;17.92;3.92;;;;;;;;;;5014569;28;19925;-65
2022/05/11 13:27:32;;;;;;;12.77;3.20;;;;;;;;;;5012290;28;20045;-65
2022/05/11 13:30:16;;;;;;;21.17;4.38;;;;;;;;;;5015305;28;20052;-65
2022/05/11 13:32:45;;;;;;;17.45;3.60;;;;;;;;;;5017232;28;20671;-64
2022/05/11 13:35:21;;;;;;;17.25;3.83;;;;;;;;;;5021636;28;20048;-64
2022/05/11 13:37:56;;;;;;;14.10;3.55;;;;;;;;;;5014517;28;20071;-64
2022/05/11 13:40:27;;;;;;;16.15;3.65;;;;;;;;;;5015661;28;20481;-65
2022/05/11 13:42:54;;;;;;;17.90;3.97;;;;;;;;;;5011577;28;20417;-65
2022/05/11 13:45:22;;;;;;;17.88;3.45;;;;;;;;;;4995326;28;20172;-64
2022/05/11 13:50:37;;;;;;;15.40;3.47;;;;;;;;;;5012020;28;20057;-64
2022/05/11 13:53:04;;;;;;;21.58;3.67;;;;;;;;;;5017685;28;20124;-64
2022/05/11 13:55:36;;;;;;;20.17;4.10;;;;;;;;;;5016360;28;20037;-64
2022/05/11 13:58:21;;;;;;;18.30;3.67;;;;;;;;;;5016538;28;20095;-64
2022/05/11 14:00:47;;;;;;;18.60;3.92;;;;;;;;;;5010862;28;20077;-64
2022/05/11 14:03:15;;;;;;;17.25;4.25;;;;;;;;;;5012781;28;20041;-64
2022/05/11 14:05:44;;;;;;;16.75;3.85;;;;;;;;;;5013265;28;21317;-64
2022/05/11 14:08:12;;;;;;;16.63;3.40;;;;;;;;;;4993088;28;20453;-64
2022/05/11 14:10:38;;;;;;;13.18;2.97;;;;;;;;;;5016014;28;20450;-64
2022/05/11 14:13:05;;;;;;;15.43;3.10;;;;;;;;;;5014069;28;20049;-64
2022/05/11 14:15:31;;;;;;;15.15;2.95;;;;;;;;;;5013175;28;20030;-64
2022/05/11 14:17:57;;;;;;;15.15;3.15;;;;;;;;;;5017152;28;20149;-64
2022/05/11 14:20:25;;;;;;;23.38;3.28;;;;;;;;;;5019322;28;20116;-64
2022/05/11 14:22:51;;;;;;;18.98;3.38;;;;;;;;;;5015335;28;20099;-64
2022/05/11 14:25:18;;;;;;;15.38;2.78;;;;;;;;;;5013785;28;20037;-64
2022/05/11 14:27:45;;;;;;;11.48;3.33;;;;;;;;;;5011563;28;20108;-63
2022/05/11 14:30:12;;;;;;;19.90;2.97;;;;;;;;;;4997850;28;20037;-64
2022/05/11 14:32:41;;;;;;;14.88;2.83;;;;;;;;;;5000493;28;20167;-64
2022/05/11 14:35:10;;;;;;;11.93;3.03;;;;;;;;;;5010864;28;20038;-64
2022/05/11 14:37:37;;;;;;;13.27;2.72;;;;;;;;;;5013735;28;20069;-64
2022/05/11 14:40:04;;;;;;;10.27;2.25;;;;;;;;;;5015616;28;20056;-64
2022/05/11 14:42:31;;;;;;;12.35;2.47;;;;;;;;;;5011572;28;20132;-64
2022/05/11 14:44:58;;;;;;;19.13;3.78;;;;;;;;;;5012335;28;20046;-63
2022/05/11 14:47:24;;;;;;;12.90;2.67;;;;;;;;;;4997554;28;20489;-64
2022/05/11 14:49:51;;;;;;;14.65;3.10;;;;;;;;;;4998705;28;20042;-64
2022/05/11 14:52:17;;;;;;;9.88;2.08;;;;;;;;;;5010322;28;20065;-64
2022/05/11 14:54:43;;;;;;;13.13;2.58;;;;;;;;;;5014793;28;20041;-64
2022/05/11 15:02:40;;;;;;;14.52;2.42;;;;;;;;;;4999680;28;20046;-65
2022/05/11 15:05:08;;;;;;;8.32;2.05;;;;;;;;;;5016384;28;20048;-64
2022/05/11 15:07:35;;;;;;;13.38;2.28;;;;;;;;;;5012680;28;20111;-64
2022/05/11 15:10:02;;;;;;;11.88;2.22;;;;;;;;;;5014572;28;20045;-65
2022/05/11 15:15:13;;;;;;;8.85;2.22;;;;;;;;;;4995405;28;20050;-64
2022/05/11 15:17:39;;;;;;;7.50;1.58;;;;;;;;;;5003689;28;20366;-65
2022/05/11 15:20:07;;;;;;;14.05;1.80;;;;;;;;;;5012308;28;20041;-64
2022/05/11 15:22:34;;;;;;;10.35;1.65;;;;;;;;;;5015061;28;20107;-64
2022/05/11 15:25:00;;;;;;;8.95;2.25;;;;;;;;;;5031165;28;20139;-64
2022/05/11 15:27:26;;;;;;;13.65;2.10;;;;;;;;;;5026560;28;20092;-64
2022/05/11 15:29:52;;;;;;;11.55;1.88;;;;;;;;;;5023838;28;20060;-64
2022/05/11 15:32:20;;;;;;;13.32;2.75;;;;;;;;;;5017902;28;20050;-64